This is the latest recevied weather packets stored in our database for station/object KC1TEM-13. If no packets are shown the sender has not sent any weather packets the latest 1 day(s).
| Time | Temp. | Humidity | Pressure | Rain* | Wind** | Luminosity | Snow |
|---|---|---|---|---|---|---|---|
| 1778003808 | 28.33° C | 33% | 1006.6 hPa | 0 mm | 1.34 m/s, 214° | 758 W/m² | - |
| 1778003505 | 28.33° C | 32% | 1006.8 hPa | 0 mm | 0.89 m/s, 198° | 796 W/m² | - |
| 1778003202 | 28.33° C | 33% | 1007 hPa | 0 mm | 1.79 m/s, 263° | 762 W/m² | - |
| 1778002898 | 27.78° C | 33% | 1006.9 hPa | 0 mm | 0.89 m/s, 182° | 787 W/m² | - |
| 1778002595 | 27.78° C | 33% | 1007 hPa | 0 mm | 0.89 m/s, 208° | 818 W/m² | - |
| 1778002292 | 27.78° C | 33% | 1007 hPa | 0 mm | 1.79 m/s, 172° | 811 W/m² | - |
| 1778001989 | 27.78° C | 33% | 1007.1 hPa | 0 mm | 0.89 m/s, 226° | 846 W/m² | - |
| 1778001686 | 27.78° C | 34% | 1007.1 hPa | 0 mm | 2.24 m/s, 229° | 841 W/m² | - |
| 1778001380 | 27.22° C | 34% | 1007.4 hPa | 0 mm | 2.24 m/s, 211° | 846 W/m² | - |
| 1778001078 | 27.22° C | 35% | 1007.4 hPa | 0 mm | 0.89 m/s, 232° | 872 W/m² | - |
| 1778000775 | 27.22° C | 34% | 1007.7 hPa | 0 mm | 2.24 m/s, 177° | 844 W/m² | - |
| 1778000471 | 27.78° C | 34% | 1007.5 hPa | 0 mm | 1.79 m/s, 213° | 849 W/m² | - |
| 1778000166 | 28.33° C | 34% | 1007.5 hPa | 0 mm | 0.89 m/s, 341° | 825 W/m² | - |
| 1777999862 | 27.22° C | 35% | 1007.8 hPa | 0 mm | 1.79 m/s, 246° | 863 W/m² | - |
| 1777999558 | 27.22° C | 37% | 1007.8 hPa | 0 mm | 1.34 m/s, 210° | 867 W/m² | - |
| 1777999256 | 26.11° C | 37% | 1007.9 hPa | 0 mm | 2.24 m/s, 215° | 860 W/m² | - |
| 1777998954 | 26.11° C | 37% | 1008.2 hPa | 0 mm | 2.68 m/s, 149° | 858 W/m² | - |
| 1777998651 | 26.11° C | 39% | 1008 hPa | 0 mm | 0.89 m/s, 141° | 861 W/m² | - |
| 1777998349 | 25.56° C | 38% | 1008.2 hPa | 0 mm | 0.89 m/s, 106° | 847 W/m² | - |
| 1777998047 | 25.56° C | 39% | 1008.3 hPa | 0 mm | 0.89 m/s, 226° | 836 W/m² | - |
| 1777997743 | 25.56° C | 40% | 1008.6 hPa | 0 mm | 0.89 m/s, 245° | 831 W/m² | - |
| 1777997441 | 25.56° C | 39% | 1008.8 hPa | 0 mm | 1.34 m/s, 234° | 843 W/m² | - |
| 1777997139 | 25.56° C | 39% | 1008.8 hPa | 0 mm | 2.24 m/s, 191° | 839 W/m² | - |
| 1777996836 | 25° C | 41% | 1008.9 hPa | 0 mm | 1.34 m/s, 205° | 847 W/m² | - |
| 1777996539 | 25.56° C | 39% | 1008.9 hPa | 0 mm | 0.45 m/s, 190° | 851 W/m² | - |
* Rain latest hour (hover to see other rain measurements)
** Current wind speed in m/s (hover to see current wind gust speed)